Time;durP1;ratioP1;P1;durP2;ratioP2;P2;SDS_P1;SDS_P2;PMS_P1;PMS_P2;Temp;Humidity;BMP_temperature;BMP_pressure;BME280_temperature;BME280_humidity;BME280_pressure;Samples;Min_cycle;Max_cycle;Signal;HPM_P1;HPM_P2
2023/06/22 00:00:59;;;;;;;11.95;10.25;;;;;;;20.95;100.00;100481.06;1484227;88;21470;-77
2023/06/22 00:03:25;;;;;;;16.85;10.82;;;;;;;20.98;100.00;100486.54;1480425;87;21607;-78
2023/06/22 00:05:52;;;;;;;12.58;11.10;;;;;;;21.01;100.00;100470.78;1476762;87;21963;-76
2023/06/22 00:08:19;;;;;;;20.32;11.15;;;;;;;21.05;100.00;100453.68;1462702;88;21656;-76
2023/06/22 00:10:46;;;;;;;15.10;10.00;;;;;;;21.07;100.00;100441.66;1468150;88;21516;-75
2023/06/22 00:13:15;;;;;;;13.58;10.23;;;;;;;21.11;100.00;100434.80;1450021;88;21441;-75
2023/06/22 00:15:42;;;;;;;15.40;11.20;;;;;;;21.18;100.00;100437.47;1468682;88;21582;-75
2023/06/22 00:18:11;;;;;;;13.45;11.00;;;;;;;21.27;100.00;100436.69;1469488;88;22440;-75
2023/06/22 00:20:37;;;;;;;16.77;11.97;;;;;;;21.25;100.00;100434.20;1449303;88;21677;-76
2023/06/22 00:23:08;;;;;;;12.95;10.78;;;;;;;21.25;100.00;100438.77;1469291;88;22556;-75
2023/06/22 00:25:41;;;;;;;17.15;10.75;;;;;;;21.27;100.00;100433.99;1471754;88;21456;-75
2023/06/22 00:28:08;;;;;;;12.90;11.05;;;;;;;21.30;100.00;100429.52;1472118;88;21456;-75
2023/06/22 00:30:35;;;;;;;13.15;9.73;;;;;;;21.34;100.00;100418.60;1471048;88;21486;-77
2023/06/22 00:33:02;;;;;;;14.83;11.45;;;;;;;21.34;100.00;100424.81;1466529;88;22034;-78
2023/06/22 00:35:30;;;;;;;15.15;10.40;;;;;;;21.36;100.00;100434.02;1469369;88;22560;-77
2023/06/22 00:38:00;;;;;;;10.95;9.60;;;;;;;21.38;100.00;100434.67;1455699;88;22416;-77
2023/06/22 00:40:30;;;;;;;11.48;10.30;;;;;;;21.41;100.00;100422.12;1481159;88;21426;-77
2023/06/22 00:42:57;;;;;;;12.35;11.05;;;;;;;21.44;100.00;100404.18;1481722;88;21641;-77
2023/06/22 00:45:24;;;;;;;12.33;10.08;;;;;;;21.45;100.00;100400.43;1457609;88;22357;-77
2023/06/22 00:47:55;;;;;;;15.45;10.08;;;;;;;21.46;100.00;100399.37;1486576;88;21515;-77
2023/06/22 00:50:24;;;;;;;15.83;11.08;;;;;;;21.46;100.00;100406.11;1486506;88;21507;-77
2023/06/22 00:52:58;;;;;;;17.60;11.40;;;;;;;21.43;100.00;100420.01;1476670;88;22497;-77
2023/06/22 00:55:25;;;;;;;13.20;10.63;;;;;;;21.36;100.00;100438.06;1487308;88;23011;-77
2023/06/22 00:57:56;;;;;;;12.10;10.40;;;;;;;21.35;100.00;100445.84;1478467;88;21544;-77
2023/06/22 01:00:26;;;;;;;12.25;10.85;;;;;;;21.36;100.00;100454.22;1482479;88;21521;-77
2023/06/22 01:02:53;;;;;;;13.58;11.43;;;;;;;21.36;100.00;100458.25;1477694;88;22409;-77
2023/06/22 01:05:22;;;;;;;12.55;10.35;;;;;;;21.35;100.00;100456.61;1482055;88;21655;-77
2023/06/22 01:08:25;;;;;;;10.18;8.98;;;;;;;21.34;100.00;100460.33;1478791;88;21411;-77
2023/06/22 01:11:04;;;;;;;19.10;10.55;;;;;;;21.34;100.00;100458.98;1478808;88;21526;-77
2023/06/22 01:13:44;;;;;;;13.45;10.32;;;;;;;21.31;100.00;100456.73;1484162;88;21470;-77
2023/06/22 01:16:19;;;;;;;11.80;9.90;;;;;;;21.25;100.00;100467.02;1482454;88;21640;-77
2023/06/22 01:18:47;;;;;;;12.55;10.23;;;;;;;21.14;100.00;100486.02;1480501;88;21463;-77
2023/06/22 01:21:18;;;;;;;18.15;10.13;;;;;;;21.03;100.00;100501.00;1481487;88;21470;-76
2023/06/22 01:24:12;;;;;;;11.08;9.90;;;;;;;20.99;100.00;100506.48;1483650;88;21448;-77
2023/06/22 01:26:44;;;;;;;14.20;9.70;;;;;;;20.94;100.00;100517.91;1477947;88;21580;-77
2023/06/22 01:29:13;;;;;;;14.03;10.60;;;;;;;20.92;100.00;100517.81;1483590;88;21508;-77
2023/06/22 01:31:42;;;;;;;12.55;9.65;;;;;;;20.91;100.00;100506.72;1483066;88;21448;-77
2023/06/22 01:34:09;;;;;;;13.32;10.25;;;;;;;20.90;100.00;100509.12;1481622;88;21610;-77
2023/06/22 01:36:37;;;;;;;15.88;10.00;;;;;;;20.84;100.00;100504.59;1476128;88;21492;-77
2023/06/22 01:39:05;;;;;;;19.20;9.98;;;;;;;20.87;100.00;100509.02;1478448;88;21681;-78
2023/06/22 01:41:37;;;;;;;12.82;10.88;;;;;;;20.92;100.00;100510.56;1479398;88;21530;-78
2023/06/22 01:44:08;;;;;;;12.90;10.00;;;;;;;20.94;100.00;100509.84;1479923;88;21709;-79
2023/06/22 01:46:37;;;;;;;17.55;11.08;;;;;;;20.97;100.00;100505.86;1481210;88;21551;-79
2023/06/22 01:49:04;;;;;;;15.85;10.60;;;;;;;20.96;100.00;100504.22;1474108;88;21508;-78
2023/06/22 01:51:31;;;;;;;12.18;9.93;;;;;;;20.99;100.00;100501.11;1474260;88;22491;-78
2023/06/22 01:53:57;;;;;;;17.27;10.70;;;;;;;20.96;100.00;100496.16;1472460;88;21448;-77
2023/06/22 01:56:24;;;;;;;13.88;11.68;;;;;;;20.95;100.00;100492.64;1475716;88;21633;-76
2023/06/22 01:59:19;;;;;;;14.53;10.40;;;;;;;20.96;100.00;100489.43;1480600;88;22893;-77
2023/06/22 02:02:03;;;;;;;13.03;10.25;;;;;;;20.95;100.00;100481.06;1473441;88;21514;-77
2023/06/22 02:04:49;;;;;;;17.85;12.07;;;;;;;20.93;100.00;100482.61;1478792;88;21752;-77
2023/06/22 02:07:19;;;;;;;13.32;11.63;;;;;;;20.94;100.00;100480.24;1453802;88;21485;-77
2023/06/22 02:09:49;;;;;;;12.88;11.48;;;;;;;20.94;100.00;100478.90;1471124;88;21559;-78
2023/06/22 02:12:18;;;;;;;19.55;10.98;;;;;;;20.87;100.00;100462.47;1471866;88;21610;-77
2023/06/22 02:14:46;;;;;;;14.87;12.37;;;;;;;20.87;100.00;100462.47;1471222;88;21561;-77
2023/06/22 02:17:14;;;;;;;13.88;11.75;;;;;;;20.89;100.00;100476.55;1476393;88;21426;-77
2023/06/22 02:19:44;;;;;;;18.20;11.97;;;;;;;20.85;100.00;100480.68;1459114;88;21529;-77
2023/06/22 02:22:10;;;;;;;16.30;11.63;;;;;;;20.80;100.00;100472.42;1476736;88;21596;-76
2023/06/22 02:24:36;;;;;;;13.28;11.97;;;;;;;20.79;100.00;100478.85;1475453;88;21463;-78
2023/06/22 02:27:04;;;;;;;13.55;10.93;;;;;;;20.76;100.00;100485.48;1482084;88;21411;-78
2023/06/22 02:29:30;;;;;;;14.83;11.10;;;;;;;20.73;100.00;100485.38;1480537;88;22090;-78
2023/06/22 02:31:56;;;;;;;14.25;11.10;;;;;;;20.73;100.00;100484.56;1478846;88;21463;-76
2023/06/22 02:34:23;;;;;;;13.43;10.82;;;;;;;20.72;100.00;100486.95;1478626;88;22306;-76
2023/06/22 02:36:53;;;;;;;16.07;11.88;;;;;;;20.72;100.00;100487.78;1477691;88;22053;-77
2023/06/22 02:39:22;;;;;;;17.75;11.33;;;;;;;20.72;100.00;100481.05;1473783;88;21515;-77
2023/06/22 02:41:51;;;;;;;13.50;12.20;;;;;;;20.73;100.00;100488.59;1457934;88;21566;-77
2023/06/22 02:44:19;;;;;;;15.68;11.57;;;;;;;20.68;100.00;100481.16;1476121;88;21662;-78
2023/06/22 02:46:47;;;;;;;14.87;11.60;;;;;;;20.68;100.00;100481.67;1486306;88;21548;-80
2023/06/22 02:49:13;;;;;;;16.27;12.45;;;;;;;20.61;100.00;100483.05;1479461;88;21456;-79
2023/06/22 02:51:47;;;;;;;16.80;12.60;;;;;;;20.52;100.00;100485.64;1484067;88;21435;-79
2023/06/22 02:54:16;;;;;;;17.77;12.03;;;;;;;20.48;100.00;100491.12;1472488;88;21506;-79
2023/06/22 02:56:48;;;;;;;14.23;11.38;;;;;;;20.42;100.00;100508.09;1479193;88;21573;-79
2023/06/22 02:59:11;;;;;;;19.70;12.43;;;;;;;20.35;100.00;100515.36;1477686;88;21522;-78
2023/06/22 03:01:39;;;;;;;16.82;12.70;;;;;;;20.33;100.00;100506.67;1475615;88;21441;-79
2023/06/22 03:04:07;;;;;;;14.35;12.60;;;;;;;20.34;100.00;100511.00;1483450;88;21599;-79
2023/06/22 03:06:34;;;;;;;16.95;12.18;;;;;;;20.33;100.00;100522.80;1471293;88;22482;-79
2023/06/22 03:09:04;;;;;;;18.25;12.55;;;;;;;20.29;100.00;100522.39;1480269;88;21477;-80
2023/06/22 03:11:34;;;;;;;14.75;12.00;;;;;;;20.27;100.00;100523.94;1474299;88;21559;-79
2023/06/22 03:14:01;;;;;;;15.70;12.93;;;;;;;20.30;100.00;100522.69;1483134;88;21625;-79
2023/06/22 03:16:29;;;;;;;16.40;12.15;;;;;;;20.28;100.00;100519.38;1476584;88;21566;-79
2023/06/22 03:18:55;;;;;;;14.00;11.10;;;;;;;20.31;100.00;100514.11;1484764;88;21493;-79
2023/06/22 03:21:29;;;;;;;20.80;13.60;;;;;;;20.33;100.00;100513.39;1484648;88;21440;-78
2023/06/22 03:23:55;;;;;;;15.80;12.43;;;;;;;20.27;100.00;100510.50;1473403;88;21456;-78
2023/06/22 03:26:23;;;;;;;17.90;12.30;;;;;;;20.24;100.00;100507.41;1487226;88;21425;-78
2023/06/22 03:28:49;;;;;;;16.80;12.98;;;;;;;20.26;100.00;100512.89;1461357;88;22298;-79
2023/06/22 03:31:15;;;;;;;12.78;11.28;;;;;;;20.27;100.00;100505.64;1473316;88;21515;-78
2023/06/22 03:33:42;;;;;;;15.13;12.25;;;;;;;20.32;100.00;100507.72;1434364;88;21419;-77
2023/06/22 03:36:08;;;;;;;14.93;12.05;;;;;;;20.37;100.00;100509.23;1457572;88;21693;-77
2023/06/22 03:38:34;;;;;;;18.60;11.93;;;;;;;20.43;100.00;100519.17;1473444;88;21516;-78
2023/06/22 03:41:01;;;;;;;17.62;13.13;;;;;;;20.45;100.00;100519.24;1472659;88;21448;-79
2023/06/22 03:43:27;;;;;;;25.88;13.55;;;;;;;20.45;100.00;100523.80;1473714;88;21709;-78
2023/06/22 03:45:53;;;;;;;14.65;12.30;;;;;;;20.51;100.00;100525.64;1466950;88;21448;-79
2023/06/22 03:48:19;;;;;;;17.67;13.22;;;;;;;20.58;100.00;100525.68;1478071;88;22329;-79
2023/06/22 03:50:45;;;;;;;19.37;14.28;;;;;;;20.61;100.00;100540.86;1488836;88;21456;-79
2023/06/22 03:53:13;;;;;;;18.20;14.68;;;;;;;20.66;100.00;100538.37;1455346;88;21478;-79
2023/06/22 03:55:50;;;;;;;18.87;14.85;;;;;;;20.68;100.00;100548.38;1459390;88;22639;-78
2023/06/22 03:58:18;;;;;;;16.97;13.78;;;;;;;20.71;100.00;100552.02;1473798;88;21570;-77
2023/06/22 04:00:51;;;;;;;15.40;13.75;;;;;;;20.69;100.00;100555.44;1474367;88;21463;-77
2023/06/22 04:03:21;;;;;;;20.08;13.78;;;;;;;20.69;100.00;100564.84;1470359;88;21574;-77
2023/06/22 04:05:48;;;;;;;19.48;13.85;;;;;;;20.67;100.00;100568.25;1477952;88;21545;-77
2023/06/22 04:08:15;;;;;;;15.08;13.53;;;;;;;20.68;100.00;100567.20;1477201;88;21485;-77
2023/06/22 04:10:42;;;;;;;17.95;12.60;;;;;;;20.73;100.00;100567.41;1473367;88;22299;-77
2023/06/22 04:13:08;;;;;;;18.55;15.13;;;;;;;20.79;100.00;100572.98;1474753;88;22417;-76
2023/06/22 04:15:34;;;;;;;21.15;13.20;;;;;;;20.85;100.00;100569.45;1478801;88;21507;-77
2023/06/22 04:18:00;;;;;;;16.02;13.75;;;;;;;20.88;100.00;100578.44;1477325;88;21427;-77
2023/06/22 04:20:27;;;;;;;15.55;13.20;;;;;;;20.93;100.00;100588.05;1483524;88;21640;-76
2023/06/22 04:22:54;;;;;;;16.02;13.75;;;;;;;20.96;100.00;100584.94;1474269;88;21508;-76
2023/06/22 04:25:22;;;;;;;17.20;14.13;;;;;;;21.01;100.00;100590.52;1455196;88;22321;-77
2023/06/22 04:27:49;;;;;;;16.93;12.23;;;;;;;21.10;100.00;100591.92;1472770;88;21419;-78
2023/06/22 04:30:16;;;;;;;32.88;14.38;;;;;;;21.19;100.00;100594.67;1475073;88;21463;-77
2023/06/22 04:32:43;;;;;;;20.80;12.88;;;;;;;21.26;100.00;100600.55;1475547;88;22432;-77
2023/06/22 04:35:11;;;;;;;20.97;13.35;;;;;;;21.31;100.00;100599.39;1469096;88;21426;-78
2023/06/22 04:37:39;;;;;;;20.05;13.22;;;;;;;21.31;100.00;100596.70;1465585;88;21448;-77
2023/06/22 04:40:07;;;;;;;18.02;14.33;;;;;;;21.35;100.00;100601.98;1454378;88;22117;-77
2023/06/22 04:42:36;;;;;;;17.82;13.00;;;;;;;21.39;100.00;100597.84;1451490;89;21471;-78
2023/06/22 04:45:04;;;;;;;19.95;13.88;;;;;;;21.42;100.00;100596.06;1447699;90;21523;-79
2023/06/22 04:47:31;;;;;;;18.73;13.90;;;;;;;21.51;100.00;100602.02;1457825;89;22365;-79
2023/06/22 04:49:57;;;;;;;17.98;13.60;;;;;;;21.59;100.00;100589.13;1449220;90;21471;-79
2023/06/22 04:52:24;;;;;;;25.05;14.20;;;;;;;21.76;100.00;100603.44;1454269;89;21404;-79
2023/06/22 04:54:57;;;;;;;18.90;13.45;;;;;;;21.84;100.00;100595.10;1454482;89;22389;-78
2023/06/22 04:57:32;;;;;;;19.95;13.80;;;;;;;21.94;100.00;100591.91;1447168;89;22446;-78
2023/06/22 04:59:49;;;;;;;16.42;13.60;;;;;;;22.03;100.00;100594.11;1445878;89;23071;-78
2023/06/22 05:02:16;;;;;;;19.75;12.20;;;;;;;22.04;100.00;100593.62;1449917;89;21486;-78
2023/06/22 05:04:42;;;;;;;15.58;14.00;;;;;;;22.06;100.00;100590.98;1456184;90;21510;-78
2023/06/22 05:07:08;;;;;;;15.60;12.18;;;;;;;22.14;100.00;100584.50;1450385;90;21457;-78
2023/06/22 05:09:35;;;;;;;15.72;14.10;;;;;;;22.17;100.00;100580.55;1448800;89;21545;-77
2023/06/22 05:12:02;;;;;;;16.48;13.38;;;;;;;22.11;100.00;100582.77;1457710;90;21486;-78
2023/06/22 05:14:30;;;;;;;20.23;14.33;;;;;;;22.09;100.00;100584.33;1452504;89;21633;-77
2023/06/22 05:16:58;;;;;;;17.45;14.63;;;;;;;22.09;100.00;100593.23;1445961;89;21604;-78
2023/06/22 05:19:31;;;;;;;17.27;14.25;;;;;;;22.05;100.00;100596.08;1450428;89;21611;-80
2023/06/22 05:21:53;;;;;;;23.18;15.85;;;;;;;21.94;100.00;100596.78;1446854;89;23060;-78
2023/06/22 05:24:19;;;;;;;18.55;14.43;;;;;;;21.93;100.00;100603.75;1449611;90;21405;-78
2023/06/22 05:26:45;;;;;;;24.25;13.95;;;;;;;21.94;100.00;100600.81;1453261;90;21960;-78
2023/06/22 05:29:11;;;;;;;18.77;15.15;;;;;;;21.92;100.00;100604.24;1452871;89;21697;-80
2023/06/22 05:31:37;;;;;;;22.50;12.75;;;;;;;21.91;100.00;100593.17;1450920;89;22983;-80
2023/06/22 05:34:03;;;;;;;25.17;15.45;;;;;;;22.00;100.00;100594.55;1459042;89;21464;-79
2023/06/22 05:36:30;;;;;;;15.72;13.28;;;;;;;22.18;100.00;100590.30;1451192;90;21507;-79
2023/06/22 05:38:58;;;;;;;26.33;14.18;;;;;;;22.33;100.00;100586.77;1451824;88;21486;-80
2023/06/22 05:41:24;;;;;;;17.50;14.00;;;;;;;22.51;100.00;100580.05;1462375;88;22654;-79
2023/06/22 05:43:51;;;;;;;21.87;15.30;;;;;;;22.71;100.00;100585.77;1460275;88;21644;-80
2023/06/22 05:46:19;;;;;;;17.30;12.73;;;;;;;22.87;100.00;100570.34;1464159;88;21441;-80
2023/06/22 05:48:45;;;;;;;17.02;13.98;;;;;;;23.03;100.00;100572.16;1475836;88;22410;-80
2023/06/22 05:51:11;;;;;;;16.60;14.75;;;;;;;23.12;100.00;100572.97;1455089;88;21545;-79
2023/06/22 05:53:38;;;;;;;16.77;13.50;;;;;;;23.19;100.00;100571.55;1463976;88;21426;-80
2023/06/22 05:56:29;;;;;;;20.20;14.65;;;;;;;23.22;100.00;100577.00;1469510;88;22447;-80
2023/06/22 05:58:55;;;;;;;19.05;13.72;;;;;;;23.19;99.98;100579.66;1474883;88;21648;-80
2023/06/22 06:01:21;;;;;;;15.10;12.98;;;;;;;23.29;100.00;100578.57;1478527;88;21537;-80
2023/06/22 06:03:49;;;;;;;19.87;12.90;;;;;;;23.26;98.63;100579.03;1470766;88;21596;-80
2023/06/22 06:06:16;;;;;;;15.25;13.68;;;;;;;23.27;99.14;100573.91;1472476;88;21449;-80
2023/06/22 06:08:42;;;;;;;16.27;13.10;;;;;;;23.22;99.43;100572.95;1478197;88;21618;-80
2023/06/22 06:11:09;;;;;;;16.30;13.90;;;;;;;23.13;99.43;100579.19;1472981;88;21853;-80
2023/06/22 06:13:35;;;;;;;21.73;14.30;;;;;;;23.16;99.97;100573.33;1477058;88;21441;-80
2023/06/22 06:16:01;;;;;;;20.60;13.60;;;;;;;23.27;100.00;100581.20;1469915;88;21506;-80
2023/06/22 06:18:27;;;;;;;17.50;13.05;;;;;;;23.30;99.77;100581.56;1475901;88;22439;-80
2023/06/22 06:20:53;;;;;;;15.68;13.00;;;;;;;23.30;99.68;100591.01;1474106;88;21427;-80
2023/06/22 06:23:20;;;;;;;21.12;14.90;;;;;;;23.31;99.29;100598.08;1455288;88;21418;-80
2023/06/22 06:25:46;;;;;;;31.23;13.75;;;;;;;23.31;99.40;100599.42;1474900;88;22393;-80
2023/06/22 06:28:12;;;;;;;14.75;13.20;;;;;;;23.28;99.43;100605.81;1472983;88;22073;-80
2023/06/22 06:30:39;;;;;;;35.48;15.85;;;;;;;23.30;100.00;100611.26;1474970;88;21389;-79
2023/06/22 06:33:08;;;;;;;18.70;12.63;;;;;;;23.35;100.00;100619.52;1470775;88;21853;-80
2023/06/22 06:35:33;;;;;;;28.73;14.00;;;;;;;23.38;99.65;100615.00;1458256;88;21661;-80
2023/06/22 06:37:59;;;;;;;19.62;13.70;;;;;;;23.41;98.54;100623.18;1476820;88;21464;-79
2023/06/22 06:40:25;;;;;;;23.42;13.93;;;;;;;23.41;98.91;100619.95;1471323;88;21522;-80
2023/06/22 06:42:51;;;;;;;23.30;13.98;;;;;;;23.43;98.91;100617.85;1480484;88;22372;-79
2023/06/22 06:45:22;;;;;;;19.45;14.13;;;;;;;23.47;98.60;100624.15;1474523;88;22031;-80
2023/06/22 06:47:51;;;;;;;16.20;12.15;;;;;;;23.42;98.05;100620.27;1480391;88;21537;-80
2023/06/22 06:50:18;;;;;;;24.02;13.30;;;;;;;23.50;98.33;100623.16;1401320;88;21557;-80
2023/06/22 06:52:44;;;;;;;22.35;13.00;;;;;;;23.59;97.57;100626.36;1402966;88;21516;-80
2023/06/22 06:55:11;;;;;;;28.57;15.15;;;;;;;23.66;96.75;100632.52;1386133;89;22174;-81
2023/06/22 06:57:42;;;;;;;20.77;12.30;;;;;;;23.65;96.57;100645.20;1392809;89;21419;-80
2023/06/22 07:00:11;;;;;;;16.05;11.68;;;;;;;23.59;96.68;100639.88;1436778;88;21596;-80
2023/06/22 07:02:40;;;;;;;21.20;13.60;;;;;;;23.61;97.44;100640.48;1478797;88;21463;-85
2023/06/22 07:05:07;;;;;;;19.92;13.13;;;;;;;23.58;97.11;100644.98;1460409;88;21382;-80
2023/06/22 07:07:33;;;;;;;19.02;12.88;;;;;;;23.54;96.97;100638.41;1457657;88;21433;-80
2023/06/22 07:10:00;;;;;;;19.57;13.95;;;;;;;23.61;97.32;100641.83;1477675;88;21522;-78
2023/06/22 07:12:26;;;;;;;14.05;11.43;;;;;;;23.69;96.33;100637.46;1482871;88;21456;-78
2023/06/22 07:14:53;;;;;;;15.78;13.30;;;;;;;23.80;96.10;100634.02;1477949;88;22379;-78
2023/06/22 07:17:20;;;;;;;21.35;13.50;;;;;;;23.94;95.45;100627.05;1483189;88;22700;-77
2023/06/22 07:19:46;;;;;;;18.02;12.93;;;;;;;24.06;95.69;100625.22;1478349;88;22401;-77
2023/06/22 07:22:12;;;;;;;15.98;14.30;;;;;;;24.24;95.70;100627.83;1482176;88;21455;-77
2023/06/22 07:24:38;;;;;;;15.23;12.20;;;;;;;24.51;95.75;100625.55;1484591;88;21418;-76
2023/06/22 07:27:06;;;;;;;14.50;12.43;;;;;;;24.73;93.85;100635.23;1474192;88;21692;-76
2023/06/22 07:29:33;;;;;;;14.83;12.95;;;;;;;25.00;94.16;100636.07;1477316;88;21463;-78
2023/06/22 07:32:00;;;;;;;18.00;13.68;;;;;;;25.26;93.08;100639.35;1483092;88;21485;-78
2023/06/22 07:34:26;;;;;;;16.75;12.33;;;;;;;25.43;89.93;100638.89;1479130;88;21507;-80
2023/06/22 07:36:53;;;;;;;19.20;13.30;;;;;;;25.47;89.32;100644.13;1455257;88;21500;-80
2023/06/22 07:39:22;;;;;;;19.32;14.05;;;;;;;25.50;89.60;100643.65;1475313;88;21440;-81
2023/06/22 07:41:47;;;;;;;18.95;12.53;;;;;;;25.49;89.53;100646.08;1483091;88;21781;-81
2023/06/22 07:44:13;;;;;;;15.58;12.05;;;;;;;25.46;89.16;100645.17;1477706;88;21546;-81
2023/06/22 07:46:40;;;;;;;18.85;12.63;;;;;;;25.40;88.59;100641.55;1474689;88;21600;-81
2023/06/22 07:49:08;;;;;;;19.48;12.80;;;;;;;25.53;88.77;100649.94;1458770;88;22417;-80
2023/06/22 07:51:34;;;;;;;15.80;12.20;;;;;;;25.66;88.37;100651.02;1478170;88;21566;-80
2023/06/22 07:54:01;;;;;;;17.65;12.58;;;;;;;25.88;89.06;100647.64;1402867;88;21494;-80
2023/06/22 07:56:27;;;;;;;17.98;12.18;;;;;;;26.04;87.24;100646.85;1403877;88;21461;-81
2023/06/22 07:58:53;;;;;;;21.68;12.78;;;;;;;26.07;85.84;100653.14;1403753;88;21330;-81
2023/06/22 08:01:20;;;;;;;13.78;12.03;;;;;;;26.15;85.38;100652.44;1404149;88;21353;-81
2023/06/22 08:03:48;;;;;;;14.28;12.78;;;;;;;25.96;84.42;100659.98;1402249;88;21382;-81
2023/06/22 08:06:16;;;;;;;21.62;13.45;;;;;;;25.90;85.02;100657.72;1401577;88;21404;-81
2023/06/22 08:08:42;;;;;;;14.50;11.83;;;;;;;25.83;84.97;100657.03;1383628;89;21552;-79
2023/06/22 08:11:09;;;;;;;15.53;11.83;;;;;;;25.84;85.07;100647.84;1402642;88;22189;-80
2023/06/22 08:13:35;;;;;;;17.87;12.30;;;;;;;25.98;85.34;100649.19;1403076;88;21346;-81
2023/06/22 08:16:01;;;;;;;17.37;12.15;;;;;;;26.15;85.51;100644.30;1403879;88;21478;-81
2023/06/22 08:18:28;;;;;;;14.43;11.88;;;;;;;26.33;85.31;100644.08;1403742;88;21405;-82
2023/06/22 08:20:54;;;;;;;14.23;12.88;;;;;;;26.53;84.90;100639.00;1403052;88;21493;-78
2023/06/22 08:23:21;;;;;;;17.48;12.37;;;;;;;26.60;84.00;100640.71;1404125;88;21420;-78
2023/06/22 08:25:48;;;;;;;16.37;13.25;;;;;;;26.79;83.45;100648.88;1409637;88;22299;-81
2023/06/22 08:28:14;;;;;;;16.90;11.28;;;;;;;26.93;83.77;100650.67;1403134;88;21352;-81
2023/06/22 08:30:40;;;;;;;14.50;13.00;;;;;;;27.14;83.71;100643.09;1404097;88;21375;-81
2023/06/22 08:33:06;;;;;;;13.60;12.30;;;;;;;27.04;80.15;100651.64;1403685;88;22204;-83
2023/06/22 08:35:33;;;;;;;18.77;12.07;;;;;;;26.83;80.39;100652.72;1384770;89;21500;-81
2023/06/22 08:37:59;;;;;;;13.93;12.00;;;;;;;26.61;80.78;100652.66;1409706;88;21301;-82
2023/06/22 08:40:26;;;;;;;19.77;11.15;;;;;;;26.62;80.65;100645.36;1505972;88;21471;-81
2023/06/22 08:42:53;;;;;;;25.23;13.95;;;;;;;26.62;81.60;100643.47;1403209;88;21390;-81
2023/06/22 08:45:19;;;;;;;17.50;14.25;;;;;;;26.51;80.97;100646.55;1403929;88;21427;-82
2023/06/22 08:47:45;;;;;;;15.65;12.58;;;;;;;26.37;81.17;100654.71;1404059;88;21515;-81
2023/06/22 08:50:13;;;;;;;20.90;12.70;;;;;;;26.30;82.02;100652.71;1403742;88;22196;-80
2023/06/22 08:52:43;;;;;;;13.85;12.43;;;;;;;26.36;82.73;100653.08;1383552;89;21486;-82
2023/06/22 08:55:10;;;;;;;13.05;11.68;;;;;;;26.58;83.29;100656.41;1559031;88;21382;-81
2023/06/22 08:57:38;;;;;;;14.95;11.83;;;;;;;26.79;82.72;100659.73;1402848;89;21397;-80
2023/06/22 09:00:17;;;;;;;12.75;11.15;;;;;;;27.12;82.94;100653.92;1402369;88;21441;-80
2023/06/22 09:02:40;;;;;;;15.70;12.58;;;;;;;27.31;78.37;100651.22;1564243;88;21383;-80
2023/06/22 09:05:06;;;;;;;15.45;11.20;;;;;;;27.45;80.28;100643.50;1403524;88;21523;-81
2023/06/22 09:07:34;;;;;;;15.45;12.45;;;;;;;27.73;80.95;100645.14;1403486;88;22187;-81
2023/06/22 09:10:00;;;;;;;17.00;12.82;;;;;;;28.09;80.83;100650.97;1402385;88;21308;-81
2023/06/22 09:12:27;;;;;;;17.90;12.82;;;;;;;28.31;79.35;100648.98;1409466;88;21530;-82
2023/06/22 09:14:54;;;;;;;16.52;12.55;;;;;;;28.47;77.33;100643.69;1403489;88;21353;-81
2023/06/22 09:17:20;;;;;;;15.38;12.15;;;;;;;28.33;75.31;100642.72;1403167;88;21470;-82
2023/06/22 09:19:47;;;;;;;12.58;11.30;;;;;;;28.52;76.63;100641.00;1403771;88;21367;-80
2023/06/22 09:22:14;;;;;;;16.07;12.15;;;;;;;28.72;76.64;100641.68;1403629;88;21345;-81
2023/06/22 09:24:40;;;;;;;12.73;11.45;;;;;;;28.76;75.10;100644.95;1403512;88;21361;-79
2023/06/22 09:27:06;;;;;;;15.88;13.00;;;;;;;28.92;75.51;100643.70;1403415;88;21345;-81
2023/06/22 09:29:35;;;;;;;13.60;11.78;;;;;;;29.06;72.26;100638.08;1533069;88;21512;-82
2023/06/22 09:32:02;;;;;;;12.98;11.53;;;;;;;29.16;74.62;100629.94;1565463;88;21539;-81
2023/06/22 09:34:28;;;;;;;12.37;10.50;;;;;;;29.21;73.72;100628.59;1403378;88;22204;-80
2023/06/22 09:36:55;;;;;;;16.07;11.65;;;;;;;28.95;72.60;100634.45;1403215;88;21544;-78
2023/06/22 09:39:21;;;;;;;12.07;10.88;;;;;;;28.58;72.57;100630.97;1403980;88;21442;-79
2023/06/22 09:41:47;;;;;;;12.73;11.40;;;;;;;28.47;73.47;100636.33;1539368;88;21497;-82
2023/06/22 09:44:14;;;;;;;12.20;10.70;;;;;;;28.34;73.63;100628.60;1446704;88;22097;-81
2023/06/22 09:46:40;;;;;;;15.68;10.78;;;;;;;28.42;74.63;100628.66;1477341;88;21418;-81
2023/06/22 09:49:06;;;;;;;11.95;10.30;;;;;;;28.69;75.32;100628.59;1481116;88;22381;-82
2023/06/22 09:51:32;;;;;;;12.25;11.05;;;;;;;28.82;73.96;100631.38;1484609;88;21433;-82
2023/06/22 09:53:58;;;;;;;11.93;10.58;;;;;;;28.86;74.03;100632.47;1482417;88;21989;-83
2023/06/22 09:56:26;;;;;;;15.20;10.48;;;;;;;28.83;73.58;100642.02;1480614;88;21544;-82
2023/06/22 09:58:53;;;;;;;14.95;11.60;;;;;;;28.58;72.09;100642.67;1476883;88;21605;-81
2023/06/22 10:01:20;;;;;;;14.07;10.40;;;;;;;28.62;73.57;100638.33;1475602;88;21478;-82
2023/06/22 10:03:47;;;;;;;13.70;10.48;;;;;;;28.89;73.13;100631.97;1477937;88;22486;-81
2023/06/22 10:06:13;;;;;;;12.00;10.80;;;;;;;29.13;73.03;100640.01;1476461;88;21552;-83
2023/06/22 10:08:40;;;;;;;12.55;10.93;;;;;;;29.31;72.20;100632.44;1478844;88;21433;-82
2023/06/22 10:11:06;;;;;;;13.70;11.12;;;;;;;29.48;70.90;100628.13;1475297;88;21523;-82
2023/06/22 10:13:33;;;;;;;11.45;9.85;;;;;;;29.62;70.45;100624.66;1482300;88;22574;-82
2023/06/22 10:15:59;;;;;;;14.13;10.53;;;;;;;29.81;70.48;100618.70;1483353;88;21478;-81
2023/06/22 10:18:25;;;;;;;10.98;9.88;;;;;;;29.98;70.14;100619.26;1474572;88;21470;-83
2023/06/22 10:20:52;;;;;;;15.13;11.63;;;;;;;30.23;70.09;100617.63;1481184;88;21574;-81
2023/06/22 10:23:21;;;;;;;11.63;10.43;;;;;;;30.45;67.50;100627.72;1486151;88;22351;-80
2023/06/22 10:25:48;;;;;;;12.73;10.93;;;;;;;30.45;68.01;100623.62;1483270;88;21603;-82
2023/06/22 10:28:14;;;;;;;14.87;11.35;;;;;;;30.63;68.13;100632.33;1482474;88;21448;-82
2023/06/22 10:30:42;;;;;;;12.47;11.10;;;;;;;30.62;64.40;100627.97;1462404;88;21477;-83
2023/06/22 10:37:27;;;;;;;11.28;10.10;;;;;;;30.99;67.75;100624.33;1478915;88;22660;-82
2023/06/22 10:39:53;;;;;;;12.18;9.88;;;;;;;31.14;66.50;100626.73;1473649;88;21382;-85
2023/06/22 10:42:19;;;;;;;13.45;10.18;;;;;;;31.09;65.72;100625.38;1472810;88;21500;-82
2023/06/22 10:44:46;;;;;;;16.25;10.68;;;;;;;31.12;63.48;100631.66;1474938;88;21544;-83
2023/06/22 10:47:12;;;;;;;12.68;9.88;;;;;;;31.01;64.39;100627.58;1475439;88;21405;-83
2023/06/22 10:49:39;;;;;;;11.30;9.65;;;;;;;31.10;64.91;100625.64;1473217;88;21456;-83
2023/06/22 10:52:09;;;;;;;10.48;9.33;;;;;;;31.15;64.30;100623.70;1476936;88;21633;-83
2023/06/22 10:54:37;;;;;;;18.27;8.95;;;;;;;31.36;64.15;100621.74;1474787;88;21529;-81
2023/06/22 10:57:04;;;;;;;16.67;10.55;;;;;;;31.39;63.79;100616.23;1464944;88;21493;-83
2023/06/22 10:59:30;;;;;;;12.40;10.45;;;;;;;31.19;62.70;100621.25;1481746;88;21589;-83
2023/06/22 11:01:57;;;;;;;11.68;10.48;;;;;;;31.24;63.19;100611.64;1475225;88;21463;-81
2023/06/22 11:04:24;;;;;;;10.85;9.78;;;;;;;31.38;62.85;100607.77;1479880;88;22472;-82
2023/06/22 11:06:51;;;;;;;10.95;9.90;;;;;;;31.49;61.91;100609.91;1471819;88;21588;-83
2023/06/22 11:09:21;;;;;;;10.82;9.28;;;;;;;31.61;62.63;100611.73;1480855;88;21522;-83
2023/06/22 11:11:49;;;;;;;12.07;9.35;;;;;;;31.52;61.56;100609.34;1484056;88;22284;-82